.
WxDataArchive / Data Records for 2011-05-10
2011-05-09 May 2011 2011-05-11

Data Records for Tuesday, 10 May 2011

Time	Temp	Chill	HIndex	Humid	Dewpt	 Wind 	HiWind	WindDir	Rain 	Barom 
-----	----	-----	------	-----	-----	------	------	-------	-----	----- 
00:00	55.7	55.7	55.7	55	39.8	4	10	90	0.00	29.938 
00:05	55.7	55.7	55.7	55	39.8	4	11	112	0.00	29.938 
00:10	55.7	55.7	55.7	55	39.8	5	10	90	0.00	29.938 
00:15	55.7	55.7	55.7	56	40.2	4	9	90	0.00	29.941 
00:20	55.7	55.7	55.7	56	40.2	3	7	90	0.00	29.941 
00:25	55.7	55.7	55.7	55	39.8	4	11	90	0.00	29.941 
00:30	55.9	55.9	55.9	54	39.5	4	8	90	0.00	29.940 
00:35	55.9	55.9	55.9	54	39.5	3	7	90	0.00	29.940 
00:40	55.9	55.9	55.9	52	38.5	4	9	90	0.00	29.940 
00:45	56.0	56.0	56.0	51	38.1	3	6	90	0.00	29.937 
00:50	56.0	56.0	56.0	51	38.1	2	6	90	0.00	29.937 
00:55	56.0	56.0	56.0	51	38.1	4	9	90	0.00	29.937 
01:00	56.2	56.2	56.2	49	37.3	3	9	112	0.00	29.939 
01:05	56.2	56.2	56.2	49	37.3	2	5	90	0.00	29.939 
01:10	56.3	56.3	56.3	48	36.9	3	9	90	0.00	29.939 
01:15	56.2	56.2	56.2	48	36.8	2	5	90	0.00	29.939 
01:20	56.2	56.2	56.2	49	37.3	2	5	90	0.00	29.939 
01:25	56.2	56.2	56.2	48	36.8	2	9	112	0.00	29.939 
01:30	56.2	56.2	56.2	48	36.8	3	5	90	0.00	29.939 
01:35	56.0	56.0	56.0	49	37.1	2	4	112	0.00	29.939 
01:40	56.0	56.0	56.0	49	37.1	1	4	68	0.00	29.939 
01:45	56.0	56.0	56.0	49	37.1	2	7	90	0.00	29.936 
01:50	56.2	56.2	56.2	48	36.8	3	6	90	0.00	29.936 
01:55	56.2	56.2	56.2	48	36.8	2	5	90	0.00	29.936 
02:00	56.2	56.2	56.2	49	37.3	2	4	90	0.00	29.924 
02:05	56.2	56.2	56.2	50	37.8	1	3	90	0.00	29.924 
02:10	56.3	56.3	56.3	50	37.9	1	5	90	0.00	29.924 
02:15	56.3	56.3	56.3	50	37.9	2	5	112	0.00	29.920 
02:20	56.5	56.5	56.5	50	38.1	1	3	135	0.00	29.920 
02:25	56.5	56.5	56.5	51	38.6	0	2	135	0.00	29.920 
02:30	56.5	56.5	56.5	52	39.1	0	2	135	0.00	29.919 
02:35	56.6	56.6	56.6	52	39.2	1	3	135	0.00	29.919 
02:40	56.7	56.7	56.7	53	39.8	2	4	135	0.00	29.919 
02:45	56.7	56.7	56.7	52	39.3	1	3	90	0.00	29.907 
02:50	56.9	56.9	56.9	53	39.9	1	4	90	0.00	29.907 
02:55	56.7	56.7	56.7	53	39.8	1	3	90	0.00	29.907 
03:00	56.7	56.7	56.7	54	40.2	1	3	90	0.00	29.906 
03:05	56.6	56.6	56.6	55	40.6	1	4	90	0.00	29.906 
03:10	56.3	56.3	56.3	56	40.8	1	4	90	0.00	29.906 
03:15	56.2	56.2	56.2	56	40.7	2	4	90	0.00	29.899 
03:20	55.9	55.9	55.9	57	40.9	2	3	90	0.00	29.899 
03:25	55.7	55.7	55.7	57	40.7	3	5	90	0.00	29.899 
03:30	55.7	55.7	55.7	58	41.2	3	6	112	0.00	29.889 
03:35	55.6	55.6	55.6	58	41.1	2	5	112	0.00	29.889 
03:40	55.4	55.4	55.4	59	41.3	3	6	90	0.00	29.889 
03:45	55.1	55.1	55.1	59	41.0	2	4	90	0.00	29.888 
03:50	55.1	55.1	55.1	59	41.0	2	6	90	0.00	29.888 
03:55	55.1	55.1	55.1	59	41.0	2	4	68	0.00	29.888 
04:00	55.1	55.1	55.1	58	40.6	2	4	112	0.00	29.885 
04:05	55.3	55.3	55.3	58	40.8	2	5	90	0.00	29.885 
04:10	55.4	55.4	55.4	58	40.9	1	4	68	0.00	29.885 
04:15	55.6	55.6	55.6	59	41.5	1	4	68	0.00	29.880 
04:20	55.9	55.9	55.9	59	41.8	1	3	68	0.00	29.880 
04:25	56.0	56.0	56.0	61	42.7	2	4	68	0.00	29.880 
04:30	55.9	55.9	55.9	65	44.3	1	3	112	0.00	29.875 
04:35	55.6	55.6	55.6	64	43.6	1	5	90	0.00	29.875 
04:40	55.3	55.3	55.3	65	43.7	2	6	90	0.00	29.875 
04:45	55.3	55.3	55.3	66	44.1	1	4	90	0.00	29.876 
04:50	55.3	55.3	55.3	65	43.7	3	5	112	0.00	29.876 
04:55	55.3	55.3	55.3	64	43.3	2	4	90	0.00	29.876 
05:00	55.3	55.3	55.3	64	43.3	2	5	68	0.00	29.871 
05:05	55.3	55.3	55.3	66	44.1	1	3	68	0.00	29.871 
05:10	55.0	55.0	55.0	65	43.5	3	5	90	0.00	29.871 
05:15	54.8	54.8	54.8	66	43.7	2	4	90	0.00	29.860 
05:20	54.7	54.7	54.7	65	43.2	2	5	90	0.00	29.860 
05:25	54.7	54.7	54.7	66	43.6	2	4	112	0.00	29.860 
05:30	54.7	54.7	54.7	66	43.6	1	4	112	0.00	29.860 
05:35	54.7	54.7	54.7	67	44.0	2	4	90	0.00	29.860 
05:40	54.5	54.5	54.5	67	43.8	2	4	68	0.00	29.860 
05:45	54.4	54.4	54.4	68	44.1	2	5	90	0.00	29.860 
05:50	54.2	54.2	54.2	68	43.9	2	4	90	0.00	29.860 
05:55	54.2	54.2	54.2	69	44.3	1	3	90	0.00	29.860 
06:00	54.2	54.2	54.2	70	44.6	1	3	90	0.00	29.862 
06:05	54.1	54.1	54.1	69	44.2	1	4	90	0.00	29.862 
06:10	53.9	53.9	53.9	70	44.3	1	4	90	0.00	29.862 
06:15	53.8	53.8	53.8	70	44.2	2	5	68	0.00	29.861 
06:20	53.6	53.6	53.6	70	44.1	2	4	90	0.00	29.861 
06:25	53.8	53.8	53.8	71	44.6	1	3	90	0.00	29.861 
06:30	53.8	53.8	53.8	70	44.2	1	4	90	0.00	29.859 
06:35	53.8	53.8	53.8	70	44.2	1	4	90	0.00	29.859 
06:40	53.9	53.9	53.9	71	44.7	2	4	90	0.00	29.859 
06:45	53.9	53.9	53.9	71	44.7	2	4	90	0.00	29.850 
06:50	53.8	53.8	53.8	71	44.6	2	4	90	0.00	29.850 
06:55	53.9	53.9	53.9	71	44.7	1	4	112	0.00	29.850 
07:00	54.1	54.1	54.1	70	44.5	2	5	112	0.00	29.850 
07:05	54.2	54.2	54.2	70	44.6	2	5	90	0.00	29.850 
07:10	54.2	54.2	54.2	71	45.0	2	4	90	0.00	29.850 
07:15	54.4	54.4	54.4	71	45.2	2	4	90	0.00	29.855 
07:20	54.4	54.4	54.4	71	45.2	1	4	90	0.00	29.855 
07:25	54.5	54.5	54.5	71	45.3	2	6	90	0.00	29.855 
07:30	54.7	54.7	54.7	72	45.9	1	4	112	0.00	29.858 
07:35	54.7	54.7	54.7	72	45.9	1	3	112	0.00	29.858 
07:40	54.7	54.7	54.7	72	45.9	1	3	68	0.00	29.858 
07:45	55.0	55.0	55.0	72	46.1	1	4	68	0.00	29.864 
07:50	55.1	55.1	55.1	72	46.2	2	5	90	0.00	29.864 
07:55	55.3	55.3	55.3	71	46.1	2	5	90	0.00	29.864 
08:00	55.6	55.6	55.6	72	46.7	1	4	90	0.00	29.874 
08:05	55.7	55.7	55.7	71	46.4	2	4	90	0.00	29.874 
08:10	56.0	56.0	56.0	70	46.4	2	4	68	0.00	29.874 
08:15	56.5	56.5	56.5	71	47.2	2	4	68	0.00	29.877 
08:20	56.7	56.7	56.7	70	47.0	1	4	90	0.00	29.877 
08:25	57.0	57.0	57.0	70	47.3	2	5	90	0.00	29.877 
08:30	57.2	57.2	57.2	70	47.5	2	6	112	0.00	29.878 
08:35	57.3	57.3	57.3	70	47.6	2	5	90	0.00	29.878 
08:40	57.5	57.5	57.5	69	47.4	2	6	90	0.00	29.878 
08:45	57.6	57.6	57.6	69	47.5	2	6	90	0.00	29.870 
08:50	57.8	57.8	57.8	69	47.7	1	3	90	0.00	29.870 
08:55	58.3	58.3	58.3	68	47.8	3	6	68	0.00	29.870 
09:00	58.9	58.9	58.9	67	48.0	2	6	90	0.00	29.870 
09:05	59.3	59.3	59.3	65	47.5	2	4	90	0.00	29.870 
09:10	59.6	59.6	59.6	64	47.4	1	5	90	0.00	29.870 
09:15	59.8	59.8	59.8	64	47.6	3	6	90	0.01	29.877 
09:20	60.1	60.1	60.1	63	47.5	2	6	112	0.00	29.877 
09:25	60.4	60.4	60.4	62	47.3	3	6	90	0.00	29.877 
09:30	60.4	60.4	60.4	62	47.3	2	5	112	0.00	29.880 
09:35	60.5	60.5	60.5	63	47.8	3	5	90	0.00	29.880 
09:40	60.4	60.4	60.4	63	47.7	3	7	112	0.00	29.880 
09:45	60.4	60.4	60.4	61	46.9	3	9	112	0.00	29.879 
09:50	60.5	60.5	60.5	62	47.4	3	6	112	0.00	29.879 
09:55	60.7	60.7	60.7	61	47.2	3	7	90	0.00	29.879 
10:00	61.0	61.0	61.0	61	47.5	3	7	68	0.00	29.877 
10:05	61.3	61.3	61.3	60	47.3	3	6	112	0.00	29.877 
10:10	61.3	61.3	61.3	60	47.3	3	7	112	0.00	29.877 
10:15	61.5	61.5	61.5	60	47.5	2	6	90	0.00	29.873 
10:20	61.5	61.5	61.5	59	47.0	3	10	112	0.00	29.873 
10:25	61.8	61.8	61.8	60	47.8	2	5	90	0.00	29.873 
10:30	62.4	62.4	62.4	59	47.9	2	7	68	0.00	29.867 
10:35	62.9	62.9	62.9	58	47.9	3	7	90	0.00	29.867 
10:40	62.9	62.9	62.9	58	47.9	4	10	90	0.00	29.867 
10:45	63.1	63.1	63.1	58	48.1	4	7	112	0.00	29.864 
10:50	63.5	63.5	63.5	58	48.5	3	8	90	0.00	29.864 
10:55	64.5	64.5	64.5	57	48.9	3	6	68	0.00	29.864 
11:00	65.8	65.8	65.8	54	48.7	3	6	68	0.00	29.860 
11:05	66.6	66.6	66.6	53	48.9	3	6	90	0.00	29.860 
11:10	67.1	67.1	67.1	52	48.9	3	6	112	0.00	29.860 
11:15	67.1	67.1	67.1	52	48.9	2	6	90	0.00	29.857 
11:20	67.1	67.1	67.1	51	48.4	2	7	112	0.00	29.857 
11:25	67.3	67.3	67.3	51	48.5	3	6	90	0.00	29.857 
11:30	67.4	67.4	67.4	50	48.1	4	7	90	0.00	29.853 
11:35	67.4	67.4	67.4	51	48.6	3	7	90	0.00	29.853 
11:40	67.8	67.8	67.8	52	49.5	2	5	90	0.00	29.853 
11:45	68.1	68.1	68.1	52	49.8	2	5	90	0.00	29.852 
11:50	68.8	68.8	68.8	51	49.9	2	5	90	0.00	29.852 
11:55	69.4	69.4	69.4	49	49.4	2	6	90	0.00	29.852 
12:00	69.8	69.8	69.8	50	50.3	1	4	90	0.00	29.846 
12:05	70.3	70.3	70.3	50	50.8	1	3	112	0.00	29.846 
12:10	70.8	70.8	70.8	49	50.7	2	4	90	0.00	29.846 
12:15	71.3	71.3	71.3	50	51.7	1	3	112	0.00	29.840 
12:20	71.8	71.8	71.8	48	51.0	2	5	112	0.00	29.840 
12:25	72.0	72.0	72.0	50	52.3	3	5	90	0.00	29.840 
12:30	72.7	72.7	72.7	47	51.3	2	6	112	0.00	29.832 
12:35	73.3	73.3	73.3	47	51.8	2	7	112	0.00	29.832 
12:40	73.7	73.7	73.7	49	53.3	2	5	90	0.00	29.832 
12:45	74.0	74.0	74.0	46	51.9	2	5	112	0.00	29.829 
12:50	74.4	74.4	74.4	47	52.8	1	6	112	0.00	29.829 
12:55	74.9	74.9	74.9	47	53.3	2	6	90	0.00	29.829 
13:00	75.3	75.3	77.7	47	53.7	1	3	90	0.00	29.827 
13:05	76.0	76.0	78.0	46	53.7	1	4	90	0.00	29.827 
13:10	76.5	76.5	78.3	48	55.3	1	3	270	0.00	29.827 
13:15	76.8	76.8	78.3	45	53.8	1	5	90	0.00	29.822 
13:20	77.2	77.2	78.7	49	56.5	1	4	90	0.00	29.822 
13:25	77.2	77.2	78.6	47	55.4	2	5	90	0.00	29.822 
13:30	77.4	77.4	78.8	48	56.1	1	3	90	0.00	29.820 
13:35	77.7	77.7	78.8	44	54.0	1	4	90	0.00	29.820 
13:40	78.1	78.1	79.0	45	55.0	1	4	90	0.00	29.820 
13:45	78.1	78.1	79.3	49	57.4	0	3	270	0.00	29.818 
13:50	78.3	78.3	79.3	48	57.0	1	4	90	0.00	29.818 
13:55	78.5	78.5	79.6	50	58.3	1	3	90	0.00	29.818 
14:00	78.8	78.8	79.8	50	58.6	0	2	90	0.00	29.815 
14:05	79.0	79.0	79.8	47	57.0	1	5	248	0.00	29.815 
14:10	79.4	79.4	80.4	51	59.7	1	3	22	0.00	29.815 
14:15	79.8	79.8	80.7	51	60.0	0	3	225	0.00	29.802 
14:20	79.9	79.9	80.7	50	59.6	1	3	202	0.00	29.802 
14:25	80.3	80.3	80.8	47	58.2	1	3	158	0.00	29.802 
14:30	80.3	80.3	80.9	48	58.8	1	3	112	0.00	29.801 
14:35	80.3	80.3	80.8	47	58.2	1	4	112	0.00	29.801 
14:40	80.3	80.3	81.0	49	59.4	1	4	112	0.00	29.801 
14:45	80.5	80.5	81.2	49	59.6	1	4	90	0.00	29.798 
14:50	80.3	80.3	81.1	50	59.9	2	4	112	0.00	29.798 
14:55	80.5	80.5	81.7	54	62.3	1	5	112	0.00	29.798 
15:00	80.5	80.5	81.3	50	60.1	2	5	90	0.00	29.795 
15:05	80.5	80.5	81.5	52	61.2	1	6	90	0.00	29.795 
15:10	81.1	81.1	81.8	50	60.7	1	4	68	0.00	29.795 
15:15	81.6	81.6	82.5	51	61.7	1	4	135	0.00	29.785 
15:20	82.0	82.0	82.8	50	61.5	1	4	135	0.00	29.785 
15:25	82.0	82.0	82.9	51	62.1	2	3	90	0.00	29.785 
15:30	82.2	82.2	82.8	49	61.1	1	4	90	0.00	29.786 
15:35	82.0	82.0	82.9	51	62.1	1	3	90	0.00	29.786 
15:40	82.2	82.2	82.8	49	61.1	1	4	112	0.00	29.786 
15:45	82.4	82.4	83.0	49	61.3	1	3	112	0.00	29.781 
15:50	82.2	82.2	83.0	50	61.7	1	4	112	0.00	29.781 
15:55	81.8	81.8	82.8	52	62.4	1	5	90	0.00	29.781 
16:00	81.6	81.6	82.5	51	61.7	1	3	90	0.00	29.785 
16:05	81.6	81.6	82.5	51	61.7	0	1	90	0.00	29.785 
16:10	81.8	81.8	82.7	51	61.9	0	2	90	0.00	29.785 
16:15	81.6	81.6	82.5	51	61.7	0	2	90	0.00	29.782 
16:20	81.4	81.4	82.5	53	62.6	1	4	135	0.00	29.782 
16:25	81.1	81.1	82.3	54	62.9	2	6	68	0.00	29.782 
16:30	80.9	80.9	82.0	53	62.1	1	4	112	0.00	29.780 
16:35	80.5	80.5	81.7	54	62.3	0	2	135	0.00	29.780 
16:40	80.3	80.3	81.6	55	62.6	2	5	135	0.00	29.780 
16:45	80.1	80.1	81.7	58	64.0	1	5	90	0.00	29.777 
16:50	80.1	80.1	81.5	56	63.0	1	3	90	0.00	29.777 
16:55	80.5	80.5	81.8	55	62.8	1	3	90	0.00	29.777 
17:00	80.5	80.5	81.9	56	63.3	1	5	90	0.00	29.781 
17:05	80.3	80.3	81.7	56	63.1	1	3	112	0.00	29.781 
17:10	80.1	80.1	81.6	57	63.5	1	3	112	0.00	29.781 
17:15	79.9	79.9	81.4	57	63.3	0	2	112	0.00	29.787 
17:20	79.9	79.9	81.5	58	63.8	0	2	135	0.00	29.787 
17:25	79.9	79.9	81.7	60	64.7	1	5	112	0.00	29.787 
17:30	79.9	79.9	81.8	61	65.2	1	3	90	0.00	29.784 
17:35	79.9	79.9	81.9	62	65.7	3	6	135	0.00	29.784 
17:40	79.6	79.6	82.0	67	67.7	1	3	68	0.00	29.784 
17:45	79.2	79.2	81.6	69	68.1	0	1	338	0.00	29.786 
17:50	79.0	79.0	81.3	69	67.9	0	2	338	0.00	29.786 
17:55	78.8	78.8	81.1	69	67.7	0	3	112	0.00	29.786 
18:00	78.6	78.6	80.7	68	67.1	0	3	90	0.00	29.788 
18:05	78.6	78.6	80.8	69	67.6	1	4	112	0.00	29.788 
18:10	78.5	78.5	80.7	69	67.5	1	5	112	0.00	29.788 
18:15	78.3	78.3	80.4	70	67.7	1	3	90	0.00	29.787 
18:20	77.7	77.7	79.6	68	66.3	2	5	112	0.00	29.787 
18:25	77.2	77.2	79.0	68	65.8	2	5	90	0.00	29.787 
18:30	77.0	77.0	78.8	69	66.0	0	1	90	0.00	29.790 
18:35	76.8	76.8	78.6	68	65.4	0	2	90	0.00	29.790 
18:40	76.7	76.7	78.5	68	65.3	1	3	248	0.00	29.790 
18:45	76.7	76.7	78.4	69	65.7	0	3	248	0.00	29.792 
18:50	76.5	76.5	78.2	70	66.0	0	2	248	0.00	29.792 
18:55	76.1	76.1	77.7	72	66.4	0	2	248	0.00	29.792 
19:00	76.1	76.1	77.6	73	66.8	0	1	248	0.00	29.787 
19:05	76.3	76.3	77.8	74	67.4	0	2	248	0.00	29.787 
19:10	76.5	76.5	78.1	73	67.2	0	2	248	0.00	29.787 
19:15	76.5	76.5	78.1	73	67.2	0	1	248	0.00	29.786 
19:20	76.5	76.5	78.1	74	67.6	0	2	248	0.00	29.786 
19:25	76.3	76.3	77.8	74	67.4	0	2	90	0.00	29.786 
19:30	76.1	76.1	77.5	75	67.6	0	1	90	0.00	29.785 
19:35	76.0	76.0	77.4	75	67.5	0	1	90	0.00	29.785 
19:40	75.8	75.8	77.0	76	67.7	0	1	90	0.00	29.785 
19:45	75.6	75.6	76.8	76	67.5	0	2	90	0.00	29.793 
19:50	75.6	75.6	76.7	77	67.9	0	0	---	0.00	29.793 
19:55	75.4	75.4	76.4	77	67.7	0	0	---	0.00	29.793 
20:00	75.3	75.3	76.2	78	68.0	0	1	90	0.00	29.794 
20:05	75.1	75.1	76.0	78	67.8	0	2	90	0.00	29.794 
20:10	75.1	75.1	76.0	78	67.8	1	2	90	0.00	29.794 
20:15	74.9	74.9	74.9	79	67.9	0	0	---	0.00	29.793 
20:20	74.7	74.7	74.7	79	67.7	0	2	90	0.00	29.793 
20:25	74.6	74.6	74.6	80	68.0	1	3	90	0.00	29.793 
20:30	74.4	74.4	74.4	81	68.2	1	4	90	0.00	29.796 
20:35	74.0	74.0	74.0	81	67.8	1	3	90	0.00	29.796 
20:40	73.9	73.9	73.9	82	68.0	1	4	90	0.00	29.796 
20:45	73.0	73.0	73.0	74	64.2	1	3	90	0.00	29.801 
20:50	71.3	71.3	71.3	62	57.6	3	9	90	0.00	29.801 
20:55	70.4	70.4	70.4	60	55.8	2	10	112	0.00	29.801 
21:00	69.8	69.8	69.8	61	55.7	2	6	112	0.00	29.821 
21:05	69.1	69.1	69.1	59	54.2	3	7	112	0.00	29.821 
21:10	68.3	68.3	68.3	58	52.9	3	9	90	0.00	29.821 
21:15	67.6	67.6	67.6	57	51.8	3	10	90	0.00	29.824 
21:20	67.1	67.1	67.1	58	51.8	4	13	112	0.00	29.824 
21:25	66.6	66.6	66.6	58	51.4	3	7	112	0.00	29.824 
21:30	66.0	66.0	66.0	57	50.3	3	10	112	0.00	29.839 
21:35	65.5	65.5	65.5	57	49.9	3	9	90	0.00	29.839 
21:40	65.0	65.0	65.0	58	49.9	2	9	45	0.00	29.839 
21:45	64.5	64.5	64.5	58	49.4	4	8	112	0.00	29.841 
21:50	64.2	64.2	64.2	58	49.1	4	9	90	0.00	29.841 
21:55	63.9	63.9	63.9	58	48.8	2	6	90	0.00	29.841 
22:00	63.7	63.7	63.7	60	49.5	2	7	90	0.00	29.848 
22:05	63.4	63.4	63.4	60	49.3	3	7	90	0.00	29.848 
22:10	63.1	63.1	63.1	61	49.4	1	4	90	0.00	29.848 
22:15	62.7	62.7	62.7	60	48.6	2	5	90	0.00	29.854 
22:20	62.4	62.4	62.4	61	48.8	2	6	112	0.00	29.854 
22:25	62.3	62.3	62.3	61	48.7	2	6	112	0.00	29.854 
22:30	62.1	62.1	62.1	62	48.9	2	4	90	0.00	29.857 
22:35	62.0	62.0	62.0	62	48.8	1	5	112	0.00	29.857 
22:40	61.8	61.8	61.8	63	49.1	2	6	112	0.00	29.857 
22:45	61.8	61.8	61.8	63	49.1	2	5	90	0.00	29.855 
22:50	61.6	61.6	61.6	63	48.9	2	10	90	0.00	29.855 
22:55	61.5	61.5	61.5	64	49.2	2	5	90	0.00	29.855 
23:00	61.3	61.3	61.3	64	49.0	2	9	90	0.00	29.857 
23:05	61.2	61.2	61.2	64	48.9	0	2	112	0.00	29.857 
23:10	61.0	61.0	61.0	65	49.1	0	3	112	0.00	29.857 
23:15	60.9	60.9	60.9	65	49.1	0	1	112	0.00	29.852 
23:20	60.7	60.7	60.7	65	48.9	0	2	112	0.00	29.852 
23:25	60.5	60.5	60.5	65	48.7	1	6	112	0.00	29.852 
23:30	60.4	60.4	60.4	65	48.6	2	4	90	0.00	29.854 
23:35	60.2	60.2	60.2	65	48.4	0	2	90	0.00	29.854 
23:40	60.1	60.1	60.1	65	48.3	1	5	90	0.00	29.854 
23:45	59.9	59.9	59.9	66	48.5	0	3	90	0.00	29.851 
23:50	59.8	59.8	59.8	66	48.4	1	3	90	0.00	29.851 
23:55	59.6	59.6	59.6	66	48.2	0	2	90	0.00	29.851 

CoCoRaHS
IN-AL-39
A2 Web Hosting
Creative Commons License
GoDaddy
search engine by freefind advanced

loaded 2018-11-19 18:57:55 • last modified 2010-11-18 10:43:29
Privacy PolicyDisclaimer
• wx.awcolley.com is powered by PmWiki v.2002016 •
• all content (unless otherwise noted) © 2018 A W Colley